Hunts Point, Washington
Current Conditions -  °F | °C
As of 11:53 AM on Thursday 27 Nov 2014 (Local Time) from KBFI Reporting Station
Broken Clouds Broken Clouds  
Wind Chill: 58°   Ceiling: 1800
Heat Index: 58°   Visibility: 10mi
Dew Point: 51°   Wind: 15mph
Humidity: 78%   Direction: 170°S
Pressure: 29.81"   Gusts: NA
Location:  47.6186°N, 122.204°W
Report Text: KBFI 271953Z 17013KT 10SM BKN018 14/11 A2981 RMK AO2 SLP095 T01440106
Loading
Personal Weather Stations






























Interactive Weather Map New forecast layout! Learn more

10-Day Weather Forecast

Advertisements
Track Severe Weather on mobile